High Wych Weather

NOAA Style Reports for High Wych, Hertfordshire


Report for 2012 Jul
                   Monthly Climatological Summary for Jul 2012

Name: High Wych Weather   City: High Wych, Sawbridgeworth   State: Herts
Elevation: 72 m  Lat: N 51° 48' 26"   Lon: E 000° 07' 20"

                  Temperature (°C), Rain (mm), Wind Speed (mph)

                                      Heat  Cool        Avg
    Mean                              Deg   Deg         Wind                 Dom
Day Temp  High   Time   Low    Time   Days  Days  Rain  Speed High   Time    Dir
----------------------------------------------------------------------------------
 1  16.7  20.6   00:00  12.7   00:00   0.0   0.0   0.0  ----  10.8   00:00   ---
 2  16.3  21.0   00:00  11.6   00:00   0.0   0.0   1.5  ----  18.8   00:00   ---
 3  18.4  21.6   00:00  15.2   00:00   0.0   0.0   2.3  ----  13.3   00:00   ---
 4  20.4  25.2   00:00  15.5   00:00   0.0   0.0   5.3  ----  10.8   00:00   ---
 5  20.4  26.1   00:00  14.8   00:00   0.0   0.0   0.0  ----  10.3   00:00   ---
 6  17.3  22.2   00:00  12.3   00:00   0.0   0.0   9.4  ----   9.7   00:00   ---
 7  15.9  21.3   00:00  10.6   00:00   0.0   0.0   3.0  ----  11.4   00:00   ---
 8  16.8  20.2   00:00  13.3   00:00   0.0   0.0  13.5  ----  12.7   00:00   ---
 9  16.1  20.1   00:00  12.1   00:00   0.0   0.0   0.5  ----   7.8   00:00   ---
10  16.4  20.1   00:00  12.6   00:00   0.0   0.0   3.6  ----   7.8   00:00   ---
11  15.4  21.1   00:00   9.7   00:00   0.0   0.0   4.3  ----  10.8   00:00   ---
12  15.1  21.7   00:00   8.4   00:00   0.0   0.0   6.6  ----  10.8   00:00   ---
13  18.0  22.5   00:00  13.5   00:00   0.0   0.0   2.8  ----  12.7   00:00   ---
14  15.1  17.9   00:00  12.3   00:00   0.0   0.0   6.9  ----  11.4   00:00   ---
15  15.7  20.7   00:00  10.7   00:00   0.0   0.0   0.3  ----   9.1   00:00   ---
16  14.5  17.7   00:00  11.2   00:00   0.0   0.0   1.8  ----  17.5   00:00   ---
17  18.1  24.0   00:00  12.2   00:00   0.0   0.0   0.0  ----  10.3   00:00   ---
18  16.3  19.4   00:00  13.2   00:00   0.0   0.0   1.3  ----  12.7   00:00   ---
19  16.8  21.7   00:00  11.8   00:00   0.0   0.0   1.3  ----  10.8   00:00   ---
20  15.4  19.7   00:00  11.1   00:00   0.0   0.0   3.6  ----  10.3   00:00   ---
21  17.4  24.7   00:00  10.1   00:00   0.0   0.0   0.0  ----   6.6   00:00   ---
22  18.3  25.9   00:00  10.8   00:00   0.0   0.0   0.0  ----  13.3   00:00   ---
23  20.4  30.0   00:00  10.8   00:00   0.0   0.0   0.0  ----  10.8   00:00   ---
24  22.0  31.2   00:00  12.8   00:00   0.0   0.0   0.0  ----   7.2   00:00   ---
25  22.2  31.1   00:00  13.2   00:00   0.0   0.0   0.0  ----  11.4   00:00   ---
26  21.7  30.5   00:00  12.8   00:00   0.0   0.0   0.0  ----   9.1   00:00   ---
27  19.3  26.4   00:00  12.2   00:00   0.0   0.0   0.0  ----  13.3   00:00   ---
28  17.3  23.9   00:00  10.8   00:00   0.0   0.0   0.0  ----  11.4   00:00   ---
29  15.0  21.6   00:00   8.4   00:00   0.0   0.0   1.5  ----  12.7   00:00   ---
30  14.8  22.8   00:00   6.8   04:42   0.0   0.0   0.0  ----  13.3   00:00   ---
31  13.2  18.0   00:00   8.4   00:00   0.0   0.0  13.2  ----   7.8   00:00   ---
----------------------------------------------------------------------------------
    17.3  31.2    24     6.8    30     0.0   0.0  82.7  ----  18.8     2     ---

Max >=  27.0:  4
Max <=   0.0:  0
Min <=   0.0:  0
Min <=  -5.0:  0
Max Rain: 13.5 on day 8
Days of Rain: 19 (>= 0.2 mm)  12 (>= 2.0 mm)  0 (>= 15.0 mm)
Heat Base: 15.0  Cool Base: 15.0  Method: Integration
:now::gauges::console::today/yesterday::month/year::records: noaa reports::annual data::wind map::monthly records::trends::longrange forecast::rainfall radar::webcam